createdAt,value
2022-08-25T00:00:41.981Z,88.03
2022-08-25T00:04:45.309Z,88.43
2022-08-25T00:08:59.456Z,88.92
2022-08-25T00:13:02.096Z,89.22
2022-08-25T00:17:05.309Z,89.51
2022-08-25T00:21:07.691Z,89.72
2022-08-25T00:25:09.781Z,89.95
2022-08-25T00:29:11.564Z,90.06
2022-08-25T00:33:13.860Z,90.16
2022-08-25T00:37:16.211Z,90.35
2022-08-25T00:41:22.669Z,90.75
2022-08-25T00:45:24.956Z,90.95
2022-08-25T00:49:32.464Z,91.25
2022-08-25T00:53:34.377Z,91.58
2022-08-25T00:57:44.689Z,91.88
2022-08-25T01:01:47.103Z,92.08
2022-08-25T01:05:49.121Z,92.48
2022-08-25T01:09:53.329Z,92.97
2022-08-25T01:13:57.045Z,93.27
2022-08-25T01:17:59.749Z,93.62
2022-08-25T01:22:01.788Z,93.62
2022-08-25T01:26:31.211Z,93.12
2022-08-25T01:30:33.065Z,93.71
2022-08-25T01:34:37.864Z,94.70
2022-08-25T01:38:39.636Z,94.95
2022-08-25T01:42:54.196Z,94.84
2022-08-25T01:46:55.790Z,94.59
2022-08-25T01:50:57.363Z,94.39
2022-08-25T01:54:59.042Z,94.84
2022-08-25T01:59:00.952Z,94.84
2022-08-25T02:03:02.503Z,95.08
2022-08-25T02:07:09.000Z,95.18
2022-08-25T02:11:12.488Z,94.88
2022-08-25T02:15:14.558Z,94.58
2022-08-25T02:19:16.908Z,94.68
2022-08-25T02:23:18.547Z,94.78
2022-08-25T02:27:20.102Z,95.48
2022-08-25T02:31:24.288Z,95.23
2022-08-25T02:35:26.040Z,94.97
2022-08-25T02:39:27.682Z,94.67
2022-08-25T02:43:29.602Z,94.57
2022-08-25T02:47:32.007Z,94.07
2022-08-25T02:51:34.614Z,94.18
2022-08-25T02:55:36.232Z,94.27
2022-08-25T02:59:38.197Z,94.37
2022-08-25T03:03:41.428Z,94.48
2022-08-25T03:07:45.108Z,94.78
2022-08-25T03:11:47.328Z,95.21
2022-08-25T03:15:49.347Z,95.16
2022-08-25T03:19:51.034Z,95.26
2022-08-25T03:23:52.703Z,95.61
2022-08-25T03:27:54.285Z,95.71
2022-08-25T03:31:58.186Z,95.61
2022-08-25T03:36:00.073Z,95.90
2022-08-25T03:40:04.336Z,95.90
2022-08-25T03:44:08.023Z,95.51
2022-08-25T03:48:09.691Z,95.01
2022-08-25T03:52:11.279Z,95.11
2022-08-25T03:56:13.230Z,95.71
2022-08-25T04:00:15.228Z,95.95
2022-08-25T04:04:16.831Z,96.15
2022-08-25T04:08:19.358Z,96.20
2022-08-25T04:12:21.213Z,96.40
2022-08-25T04:16:28.245Z,96.14
2022-08-25T04:20:30.153Z,95.70
2022-08-25T04:24:32.397Z,95.60
2022-08-25T04:28:34.016Z,95.50
2022-08-25T04:32:36.768Z,95.30
2022-08-25T04:36:38.449Z,95.50
2022-08-25T04:40:40.045Z,95.70
2022-08-25T04:44:41.779Z,96.30
2022-08-25T04:48:43.490Z,96.14
2022-08-25T04:52:45.101Z,95.90
2022-08-25T04:56:46.955Z,95.80
2022-08-25T05:00:48.522Z,95.90
2022-08-25T05:04:50.399Z,95.70
2022-08-25T05:08:52.471Z,96.00
2022-08-25T05:12:54.101Z,95.70
2022-08-25T05:16:58.057Z,95.80
2022-08-25T05:21:08.245Z,96.20
2022-08-25T05:25:10.020Z,96.60
2022-08-25T05:29:11.655Z,96.84
2022-08-25T05:33:13.537Z,96.75
2022-08-25T05:37:15.169Z,96.75
2022-08-25T05:41:24.849Z,96.80
2022-08-25T05:45:26.518Z,97.80
2022-08-25T05:49:28.260Z,97.85
2022-08-25T05:53:31.417Z,98.54
2022-08-25T05:57:36.084Z,98.54
2022-08-25T06:02:03.997Z,98.44
2022-08-25T06:06:07.251Z,98.50
2022-08-25T06:10:13.358Z,98.80
2022-08-25T06:14:16.034Z,98.69
2022-08-25T06:18:17.645Z,98.90
2022-08-25T06:22:19.287Z,98.90
2022-08-25T06:26:21.557Z,98.75
2022-08-25T06:30:28.954Z,98.75
2022-08-25T06:34:31.504Z,98.85
2022-08-25T06:38:33.306Z,98.60
2022-08-25T06:42:34.984Z,98.90
2022-08-25T06:46:37.234Z,99.00
2022-08-25T06:50:39.866Z,98.70
2022-08-25T06:54:41.586Z,98.85
2022-08-25T06:58:43.933Z,98.91
2022-08-25T07:02:45.537Z,99.51
2022-08-25T07:06:49.029Z,99.70
2022-08-25T07:10:50.848Z,99.96
2022-08-25T07:15:09.981Z,99.99
2022-08-25T07:19:14.714Z,99.99
2022-08-25T07:23:16.415Z,99.99
2022-08-25T07:27:17.988Z,99.99
2022-08-25T07:31:19.789Z,99.99
2022-08-25T07:35:24.164Z,99.99
2022-08-25T07:39:29.094Z,99.99
2022-08-25T07:43:30.828Z,99.99
2022-08-25T07:47:33.219Z,99.99
2022-08-25T07:51:34.928Z,99.99
2022-08-25T07:55:36.608Z,99.99
2022-08-25T07:59:42.374Z,99.99
2022-08-25T08:03:50.500Z,99.99
2022-08-25T08:07:54.705Z,99.99
2022-08-25T08:11:56.292Z,99.99
2022-08-25T08:15:57.928Z,99.97
2022-08-25T08:19:59.740Z,99.77
2022-08-25T08:24:05.029Z,99.22
2022-08-25T08:28:12.529Z,98.88
2022-08-25T08:32:14.962Z,98.09
2022-08-25T08:36:17.393Z,97.34
2022-08-25T08:40:20.527Z,97.20
2022-08-25T08:44:42.572Z,97.20
2022-08-25T08:49:05.537Z,96.16
2022-08-25T08:53:23.487Z,95.57
2022-08-25T08:57:27.052Z,95.03
2022-08-25T09:01:34.680Z,94.93
2022-08-25T09:05:47.244Z,94.39
2022-08-25T09:09:54.141Z,93.50
2022-08-25T09:14:13.702Z,93.65
2022-08-25T09:18:26.840Z,92.27
2022-08-25T09:22:53.748Z,92.13
2022-08-25T09:27:11.260Z,91.83
2022-08-25T09:31:21.003Z,90.84
2022-08-25T09:35:27.753Z,90.59
2022-08-25T09:39:29.323Z,90.30
2022-08-25T09:43:33.371Z,90.26
2022-08-25T09:47:43.097Z,89.51
2022-08-25T09:51:44.844Z,90.00
2022-08-25T09:55:59.871Z,89.37
2022-08-25T10:00:14.444Z,87.74
2022-08-25T10:04:37.035Z,87.74
2022-08-25T10:08:51.591Z,87.74
2022-08-25T10:12:53.238Z,88.20
2022-08-25T10:17:14.111Z,87.70
2022-08-25T10:21:17.451Z,87.27
2022-08-25T10:25:28.235Z,86.87
2022-08-25T10:29:55.534Z,86.63
2022-08-25T10:34:08.196Z,86.34
2022-08-25T10:38:36.202Z,85.55
2022-08-25T10:42:59.348Z,84.86
2022-08-25T10:47:22.598Z,84.82
2022-08-25T10:52:01.181Z,84.19
2022-08-25T10:56:40.281Z,84.38
2022-08-25T11:00:57.519Z,83.59
2022-08-25T11:05:38.077Z,83.85
2022-08-25T11:09:43.666Z,84.25
2022-08-25T11:13:54.142Z,83.42
2022-08-25T11:18:02.065Z,82.53
2022-08-25T11:22:21.359Z,82.39
2022-08-25T11:26:36.601Z,82.45
2022-08-25T11:30:40.162Z,82.26
2022-08-25T11:34:43.779Z,81.41
2022-08-25T11:39:00.999Z,82.20
2022-08-25T11:43:35.822Z,81.60
2022-08-25T11:48:06.800Z,80.68
2022-08-25T11:52:34.691Z,81.76
2022-08-25T11:56:40.153Z,82.29
2022-08-25T12:00:43.828Z,81.51
2022-08-25T12:04:46.730Z,80.92
2022-08-25T12:09:18.596Z,80.04
2022-08-25T12:13:51.195Z,80.05
2022-08-25T12:18:40.150Z,79.36
2022-08-25T12:22:55.373Z,79.23
2022-08-25T12:27:00.393Z,78.25
2022-08-25T12:31:15.914Z,77.00
2022-08-25T12:35:29.437Z,76.56
2022-08-25T12:39:42.677Z,76.33
2022-08-25T12:43:46.592Z,76.59
2022-08-25T12:47:49.992Z,76.20
2022-08-25T12:51:54.010Z,75.77
2022-08-25T12:56:04.987Z,75.71
2022-08-25T13:00:16.760Z,75.51
2022-08-25T13:04:41.539Z,74.63
2022-08-25T13:09:39.760Z,74.20
2022-08-25T13:14:05.902Z,73.38
2022-08-25T13:18:21.007Z,72.56
2022-08-25T13:22:23.425Z,72.47
2022-08-25T13:26:31.869Z,72.53
2022-08-25T13:30:36.716Z,71.81
2022-08-25T13:34:42.554Z,71.22
2022-08-25T13:38:47.123Z,70.70
2022-08-25T13:42:55.905Z,70.12
2022-08-25T13:47:31.344Z,69.79
2022-08-25T13:51:33.427Z,69.69
2022-08-25T13:55:50.713Z,69.46
2022-08-25T14:00:03.838Z,69.56
2022-08-25T14:04:24.742Z,68.74
2022-08-25T14:08:36.506Z,69.00
2022-08-25T14:12:46.148Z,69.20
2022-08-25T14:16:49.513Z,69.72
2022-08-25T14:20:54.522Z,70.24
2022-08-25T14:24:56.191Z,69.92
2022-08-25T14:28:57.913Z,70.12
2022-08-25T14:33:01.389Z,71.26
2022-08-25T14:37:16.253Z,71.69
2022-08-25T14:41:17.939Z,71.91
2022-08-25T14:45:19.656Z,71.62
2022-08-25T14:49:26.919Z,71.46
2022-08-25T14:53:28.678Z,71.75
2022-08-25T14:57:30.433Z,71.17
2022-08-25T15:01:32.728Z,72.24
2022-08-25T15:05:34.941Z,71.79
2022-08-25T15:09:36.514Z,70.74
2022-08-25T15:13:38.077Z,69.56
2022-08-25T15:17:45.052Z,69.34
2022-08-25T15:21:48.098Z,68.52
2022-08-25T15:25:52.909Z,68.10
2022-08-25T15:29:54.756Z,67.57
2022-08-25T15:33:56.416Z,67.15
2022-08-25T15:37:57.974Z,67.02
2022-08-25T15:41:59.637Z,66.73
2022-08-25T15:46:01.571Z,66.44
2022-08-25T15:50:08.901Z,66.21
2022-08-25T15:54:11.733Z,65.63
2022-08-25T15:58:16.043Z,65.40
2022-08-25T16:02:18.453Z,65.23
2022-08-25T16:06:20.383Z,65.33
2022-08-25T16:10:22.103Z,65.63
2022-08-25T16:14:23.757Z,65.92
2022-08-25T16:18:25.806Z,66.14
2022-08-25T16:22:27.440Z,66.63
2022-08-25T16:26:31.251Z,67.02
2022-08-25T16:30:32.922Z,66.63
2022-08-25T16:34:36.689Z,67.22
2022-08-25T16:38:39.981Z,67.12
2022-08-25T16:42:41.809Z,67.32
2022-08-25T16:46:44.427Z,67.05
2022-08-25T16:50:46.062Z,67.67
2022-08-25T16:55:08.507Z,67.51
2022-08-25T16:59:12.811Z,68.10
2022-08-25T17:03:14.442Z,68.62
2022-08-25T17:07:23.916Z,68.52
2022-08-25T17:11:29.328Z,68.55
2022-08-25T17:15:31.499Z,69.17
2022-08-25T17:19:33.183Z,69.95
2022-08-25T17:23:36.462Z,69.89
2022-08-25T17:27:38.242Z,69.50
2022-08-25T17:31:44.190Z,70.41
2022-08-25T17:35:48.953Z,70.90
2022-08-25T17:39:50.854Z,70.54
2022-08-25T17:44:05.078Z,71.85
2022-08-25T17:48:09.065Z,71.85
2022-08-25T17:52:11.599Z,73.36
2022-08-25T17:56:16.070Z,74.27
2022-08-25T18:00:21.819Z,75.39
2022-08-25T18:04:23.547Z,75.19
2022-08-25T18:08:34.919Z,76.70
2022-08-25T18:12:37.931Z,77.52
2022-08-25T18:16:40.793Z,78.11
2022-08-25T18:20:47.114Z,78.84
2022-08-25T18:24:48.685Z,79.43
2022-08-25T18:28:50.291Z,78.97
2022-08-25T18:32:52.018Z,79.46
2022-08-25T18:36:53.562Z,79.99
2022-08-25T18:41:04.823Z,80.88
2022-08-25T18:45:08.092Z,81.41
2022-08-25T18:49:15.727Z,81.90
2022-08-25T18:53:18.429Z,82.82
2022-08-25T18:57:31.852Z,83.71
2022-08-25T19:01:36.937Z,84.44
2022-08-25T19:05:45.113Z,86.41
2022-08-25T19:09:51.114Z,86.80
2022-08-25T19:13:52.826Z,87.43
2022-08-25T19:17:55.335Z,88.12
2022-08-25T19:21:58.090Z,88.85
2022-08-25T19:26:00.951Z,88.37
2022-08-25T19:30:08.901Z,89.45
2022-08-25T19:34:15.214Z,89.64
2022-08-25T19:38:33.825Z,89.49
2022-08-25T19:42:38.405Z,88.60
2022-08-25T19:46:42.902Z,88.51
2022-08-25T19:50:45.231Z,88.41
2022-08-25T19:54:46.898Z,87.56
2022-08-25T19:58:48.639Z,91.16
2022-08-25T20:02:51.147Z,90.27
2022-08-25T20:06:55.348Z,90.01
2022-08-25T20:10:57.752Z,89.72
2022-08-25T20:14:59.510Z,88.73
2022-08-25T20:19:01.246Z,89.23
2022-08-25T20:23:22.898Z,89.62
2022-08-25T20:27:28.759Z,89.52
2022-08-25T20:31:31.276Z,89.27
2022-08-25T20:35:32.855Z,88.87
2022-08-25T20:39:34.574Z,88.58
2022-08-25T20:43:36.177Z,88.72
2022-08-25T20:47:37.911Z,88.72
2022-08-25T20:51:40.307Z,88.62
2022-08-25T20:55:43.719Z,88.72
2022-08-25T20:59:45.488Z,89.01
2022-08-25T21:03:47.255Z,89.22
2022-08-25T21:07:49.486Z,89.22
2022-08-25T21:11:53.802Z,89.45
2022-08-25T21:15:55.480Z,89.75
2022-08-25T21:19:57.049Z,89.95
2022-08-25T21:23:59.268Z,89.95
2022-08-25T21:28:01.131Z,89.89
2022-08-25T21:32:06.131Z,89.89
2022-08-25T21:36:10.263Z,89.60
2022-08-25T21:40:14.508Z,89.89
2022-08-25T21:44:17.988Z,90.19
2022-08-25T21:48:22.677Z,90.29
2022-08-25T21:52:30.139Z,90.78
2022-08-25T21:56:41.596Z,90.83
2022-08-25T22:00:44.975Z,90.53
2022-08-25T22:04:51.315Z,90.63
2022-08-25T22:08:56.249Z,91.22
2022-08-25T22:12:58.478Z,91.56
2022-08-25T22:17:05.760Z,91.76
2022-08-25T22:21:11.376Z,91.66
2022-08-25T22:25:17.255Z,91.86
2022-08-25T22:29:25.998Z,91.76
2022-08-25T22:33:36.492Z,91.36
2022-08-25T22:37:47.444Z,91.51
2022-08-25T22:41:55.449Z,91.31
2022-08-25T22:46:05.099Z,91.31
2022-08-25T22:50:08.769Z,91.51
2022-08-25T22:54:16.577Z,91.61
2022-08-25T22:58:18.959Z,91.75
2022-08-25T23:02:20.991Z,91.95
2022-08-25T23:06:26.244Z,92.05
2022-08-25T23:10:34.559Z,92.05
2022-08-25T23:14:38.578Z,92.14
2022-08-25T23:18:52.125Z,92.14
2022-08-25T23:22:54.619Z,92.35
2022-08-25T23:26:56.976Z,92.35
2022-08-25T23:30:59.548Z,92.49
2022-08-25T23:35:01.288Z,92.69
2022-08-25T23:39:04.764Z,92.79
2022-08-25T23:43:12.611Z,92.88
2022-08-25T23:47:14.714Z,92.88
2022-08-25T23:51:28.166Z,92.99
2022-08-25T23:55:33.571Z,93.43
2022-08-25T23:59:35.855Z,93.52
